UUEE/SVO METAR and TAF weather

Enter ICAO airport designator
Station Type Date Time Source
UUEE METAR 2022/05/26 05:30 UTC NOAA

UUEE 260530Z VRB01MPS CAVOK 12/04 Q1008 R24L/CLRD62 R24C/CLRD62 NOSIG


Station Type Date Time Source
UUEE Decoded METAR 2022/05/26 05:30 UTC NOAA

Moscow / Sheremet'Ye , Russia (UUEE) 55-59N 037-30E
May 26, 2022 - 01:30 AM EDT / 2022.05.26 0530 UTC
Wind: Variable at 2 MPH (2 KT):0
Visibility: greater than 7 mile(s):0
Temperature: 53 F (12 C)
Dew Point: 39 F (4 C)
Relative Humidity: 57%
Pressure (altimeter): 29.77 in. Hg (1008 hPa)
ob: UUEE 260530Z VRB01MPS CAVOK 12/04 Q1008 R24L/CLRD62 R24C/CLRD62 NOSIG
cycle: 5

Station Type Date Time Source
UUEE TAF 2022/05/26 06:23 UTC NOAA

TAF UUEE 260456Z 2606/2706 20003G08MPS 9000 BKN016 TX19/2612Z TN09/2702Z
TEMPO 2613/2617 -SHRA BKN016CB
TEMPO 2617/2624 2100 -SHRA BKN006 BKN013CB
BECMG 2622/2624 28008G14MPS
TEMPO 2700/2706 -SHRA FEW006 BKN016CB

Example: see airport list